Time;durP1;ratioP1;P1;durP2;ratioP2;P2;SDS_P1;SDS_P2;PMS_P1;PMS_P2;Temp;Humidity;BMP_temperature;BMP_pressure;BME280_temperature;BME280_humidity;BME280_pressure;Samples;Min_cycle;Max_cycle;Signal;HPM_P1;HPM_P2
2023/05/05 00:01:33;;;;;;;39.60;31.70;;;;;;;41.04;32.75;101274.41;5077139;28;20514;-82
2023/05/05 00:03:58;;;;;;;41.27;33.37;;;;;;;41.03;32.84;101267.38;5095838;28;20411;-81
2023/05/05 00:06:26;;;;;;;38.97;31.10;;;;;;;41.18;32.82;101279.69;5076886;28;20453;-81
2023/05/05 00:08:52;;;;;;;40.07;29.30;;;;;;;41.06;33.03;101282.25;5077311;28;20445;-83
2023/05/05 00:11:18;;;;;;;35.30;24.83;;;;;;;41.17;32.71;101272.66;5078289;28;20526;-83
2023/05/05 00:13:44;;;;;;;38.40;24.17;;;;;;;41.16;33.05;101276.50;5097306;28;20416;-84
2023/05/05 00:16:10;;;;;;;28.00;19.10;;;;;;;41.13;32.75;101266.28;5097224;28;20443;-83
2023/05/05 00:18:36;;;;;;;25.77;19.37;;;;;;;41.17;32.60;101266.41;5097149;28;20470;-84
2023/05/05 00:21:03;;;;;;;32.37;17.40;;;;;;;41.18;32.58;101268.00;5097294;28;20510;-83
2023/05/05 00:23:29;;;;;;;29.47;18.37;;;;;;;41.25;32.67;101263.72;5097233;28;20444;-82
2023/05/05 00:25:55;;;;;;;26.73;18.80;;;;;;;41.16;32.49;101265.63;5097009;28;20422;-83
2023/05/05 00:28:21;;;;;;;21.33;16.30;;;;;;;41.12;32.75;101264.66;5097259;28;20420;-82
2023/05/05 00:30:47;;;;;;;31.97;18.00;;;;;;;41.23;32.90;101265.16;5096647;28;20450;-81
2023/05/05 00:33:13;;;;;;;28.93;19.23;;;;;;;41.17;32.93;101256.34;5078316;28;20413;-81
2023/05/05 00:35:39;;;;;;;28.73;19.87;;;;;;;41.23;32.67;101252.34;5076831;28;20510;-81
2023/05/05 00:38:05;;;;;;;32.93;20.90;;;;;;;41.09;32.83;101243.53;5076404;28;20416;-83
2023/05/05 00:40:31;;;;;;;24.83;17.93;;;;;;;41.20;32.79;101239.38;5076748;28;20503;-83
2023/05/05 00:42:58;;;;;;;28.60;18.40;;;;;;;41.24;32.90;101244.97;5076607;28;20503;-84
2023/05/05 00:45:24;;;;;;;27.30;16.47;;;;;;;41.20;33.02;101247.53;5076645;28;20416;-82
2023/05/05 00:47:54;;;;;;;31.27;18.33;;;;;;;41.27;33.02;101245.13;5076452;28;20444;-80
2023/05/05 00:50:28;;;;;;;21.30;14.60;;;;;;;41.25;32.79;101243.84;5076470;28;20496;-81
2023/05/05 00:52:59;;;;;;;24.93;15.77;;;;;;;41.22;32.73;101248.00;5081527;28;21044;-82
2023/05/05 00:55:25;;;;;;;28.90;18.40;;;;;;;41.18;32.88;101246.25;5096497;28;20444;-82
2023/05/05 00:57:52;;;;;;;33.20;18.23;;;;;;;41.21;32.87;101251.88;5096845;28;20412;-81
2023/05/05 01:00:18;;;;;;;30.60;20.37;;;;;;;41.24;32.83;101251.22;5096010;28;21050;-81
2023/05/05 01:02:44;;;;;;;29.87;22.00;;;;;;;41.22;33.45;101264.34;5096469;28;20495;-81
2023/05/05 01:05:12;;;;;;;38.00;22.27;;;;;;;41.17;33.42;101255.53;5096378;28;20411;-81
2023/05/05 01:08:15;;;;;;;28.80;19.63;;;;;;;41.14;33.55;101251.53;5096499;28;20420;-81
2023/05/05 01:10:47;;;;;;;23.90;18.60;;;;;;;41.17;33.77;101255.53;5082466;28;20991;-81
2023/05/05 01:13:13;;;;;;;33.17;20.50;;;;;;;41.22;33.88;101258.91;5076037;28;20424;-81
2023/05/05 01:15:45;;;;;;;28.57;21.27;;;;;;;41.18;33.64;101257.94;5075900;28;20413;-81
2023/05/05 01:18:32;;;;;;;31.63;21.17;;;;;;;41.10;33.77;101261.44;5075759;28;20460;-82
2023/05/05 01:21:28;;;;;;;29.20;20.60;;;;;;;41.23;33.70;101256.97;5075899;28;20424;-81
2023/05/05 01:24:10;;;;;;;32.00;19.77;;;;;;;41.24;33.97;101253.13;5075807;28;20471;-81
2023/05/05 01:26:59;;;;;;;33.83;21.50;;;;;;;41.21;33.87;101242.91;5075754;28;20436;-82
2023/05/05 01:29:31;;;;;;;37.97;21.77;;;;;;;41.31;33.85;101245.28;5075672;28;20410;-81
2023/05/05 01:32:25;;;;;;;25.27;21.20;;;;;;;41.25;33.67;101231.06;5075639;28;21000;-81
2023/05/05 01:35:09;;;;;;;29.20;20.30;;;;;;;41.15;34.02;101219.69;5088378;28;20416;-81
2023/05/05 01:37:48;;;;;;;34.00;19.17;;;;;;;41.13;34.42;101216.47;5095809;28;20452;-81
2023/05/05 01:40:19;;;;;;;27.70;17.53;;;;;;;41.16;34.01;101219.34;5091046;28;20467;-81
2023/05/05 01:42:46;;;;;;;26.10;18.23;;;;;;;41.17;34.16;101214.72;5095444;28;20427;-81
2023/05/05 01:45:14;;;;;;;37.87;21.63;;;;;;;41.06;34.24;101197.88;5095683;28;20462;-81
2023/05/05 01:47:42;;;;;;;28.90;17.30;;;;;;;41.03;34.22;101201.25;5095487;28;20473;-81
2023/05/05 01:50:10;;;;;;;23.30;16.63;;;;;;;41.04;34.32;101197.41;5095020;28;20973;-81
2023/05/05 01:52:39;;;;;;;27.97;17.13;;;;;;;41.03;34.66;101199.34;5074882;28;20437;-81
2023/05/05 01:55:07;;;;;;;22.73;17.53;;;;;;;41.14;34.22;101208.00;5075198;28;20468;-81
2023/05/05 01:57:35;;;;;;;24.27;16.13;;;;;;;41.04;34.50;101197.41;5074777;28;20417;-81
2023/05/05 02:00:04;;;;;;;30.00;16.10;;;;;;;41.03;34.27;101198.53;5064023;28;20483;-81
2023/05/05 02:02:34;;;;;;;25.50;13.30;;;;;;;40.96;34.66;101198.22;5055070;28;20409;-81
2023/05/05 02:05:01;;;;;;;27.83;14.47;;;;;;;41.02;34.89;101197.75;5054937;28;20406;-81
2023/05/05 02:07:29;;;;;;;23.70;14.70;;;;;;;41.04;34.49;101197.41;5054641;28;20825;-81
2023/05/05 02:09:56;;;;;;;20.60;15.27;;;;;;;41.08;34.59;101187.50;5062631;28;20408;-82
2023/05/05 02:12:22;;;;;;;23.07;14.90;;;;;;;41.17;34.51;101191.00;5074610;28;20458;-82
2023/05/05 02:14:50;;;;;;;21.10;13.87;;;;;;;41.22;34.36;101177.25;5092839;28;20504;-81
2023/05/05 02:17:17;;;;;;;20.13;12.03;;;;;;;41.25;34.70;101173.91;5075141;28;20491;-81
2023/05/05 02:19:47;;;;;;;25.70;14.57;;;;;;;41.22;33.96;101169.06;5074590;28;20872;-81
2023/05/05 02:22:15;;;;;;;23.17;16.17;;;;;;;41.25;34.32;101168.44;5074937;28;20499;-81
2023/05/05 02:24:42;;;;;;;23.67;14.80;;;;;;;41.23;34.15;101162.50;5074848;28;20815;-81
2023/05/05 02:27:10;;;;;;;23.13;14.17;;;;;;;41.35;34.27;101159.16;5074669;28;20916;-83
2023/05/05 02:29:46;;;;;;;21.60;12.63;;;;;;;41.37;34.33;101158.81;5074554;28;20503;-81
2023/05/05 02:32:43;;;;;;;22.80;12.70;;;;;;;41.41;34.09;101162.50;5068388;28;20432;-81
2023/05/05 02:35:32;;;;;;;21.83;13.37;;;;;;;41.35;34.41;101159.16;5054202;28;20430;-81
2023/05/05 02:38:04;;;;;;;19.27;11.47;;;;;;;41.30;34.24;101154.66;5049703;28;20417;-81
2023/05/05 02:40:35;;;;;;;27.73;12.70;;;;;;;41.26;34.43;101158.34;5054442;28;20829;-82
2023/05/05 02:43:08;;;;;;;22.30;12.20;;;;;;;40.96;35.17;101150.06;5057715;28;20507;-81
2023/05/05 02:45:35;;;;;;;26.07;13.37;;;;;;;40.76;35.60;101146.03;5034483;28;20557;-82
2023/05/05 02:48:02;;;;;;;20.80;12.67;;;;;;;40.75;35.27;101151.75;5065204;28;20423;-81
2023/05/05 02:50:32;;;;;;;22.40;13.33;;;;;;;40.45;35.03;101151.53;5074426;28;20404;-81
2023/05/05 02:52:59;;;;;;;26.90;12.20;;;;;;;40.59;34.71;101162.31;5070004;28;20810;-81
2023/05/05 02:55:32;;;;;;;23.87;14.47;;;;;;;40.34;34.35;101147.53;5074089;28;20562;-81
2023/05/05 02:58:10;;;;;;;28.10;15.00;;;;;;;39.89;34.92;101152.28;5056978;28;20429;-81
2023/05/05 03:01:06;;;;;;;20.13;15.50;;;;;;;40.04;34.93;101165.50;5053708;28;21008;-81
2023/05/05 03:03:43;;;;;;;23.30;15.47;;;;;;;40.07;34.84;101161.34;5016625;28;20821;-81
2023/05/05 03:06:18;;;;;;;25.87;15.37;;;;;;;40.06;34.99;101174.13;5074122;28;20462;-81
2023/05/05 03:09:06;;;;;;;22.40;16.90;;;;;;;39.87;35.11;101170.81;5092356;28;20416;-81
2023/05/05 03:11:38;;;;;;;34.17;19.53;;;;;;;40.02;35.34;101168.50;5077747;28;20421;-81
2023/05/05 03:14:17;;;;;;;20.53;15.30;;;;;;;39.74;35.68;101164.38;5078394;28;20444;-81
2023/05/05 03:16:45;;;;;;;29.37;16.80;;;;;;;39.70;35.53;101166.09;5078465;28;20444;-82
2023/05/05 03:19:16;;;;;;;32.93;17.97;;;;;;;39.85;35.42;101181.19;5078097;28;20482;-81
2023/05/05 03:21:42;;;;;;;26.37;15.67;;;;;;;39.78;35.54;101183.53;5076708;28;20423;-81
2023/05/05 03:24:16;;;;;;;24.70;15.10;;;;;;;39.94;35.26;101179.31;5057957;28;20767;-81
2023/05/05 03:26:43;;;;;;;21.10;16.33;;;;;;;39.98;35.57;101181.09;5058315;28;20847;-81
2023/05/05 03:29:09;;;;;;;23.20;15.73;;;;;;;40.04;35.22;101173.66;5057755;28;20421;-81
2023/05/05 03:31:36;;;;;;;26.23;16.43;;;;;;;40.16;34.99;101173.84;5057892;28;20456;-81
2023/05/05 03:34:02;;;;;;;32.53;18.60;;;;;;;40.18;34.65;101181.69;5057804;28;20417;-81
2023/05/05 03:36:28;;;;;;;23.10;16.80;;;;;;;40.10;35.27;101177.03;5057783;28;20465;-81
2023/05/05 03:38:54;;;;;;;20.53;15.53;;;;;;;39.99;35.06;101190.03;5057235;28;20461;-82
2023/05/05 03:41:23;;;;;;;26.67;13.90;;;;;;;39.87;35.30;101195.25;5057909;28;20417;-81
2023/05/05 03:43:50;;;;;;;25.83;13.70;;;;;;;39.80;34.98;101186.75;5077420;28;20954;-81
2023/05/05 03:46:16;;;;;;;22.83;13.00;;;;;;;39.72;35.50;101205.41;5077587;28;20433;-81
2023/05/05 03:48:42;;;;;;;19.87;15.07;;;;;;;39.71;35.81;101201.06;5077701;28;20470;-81
2023/05/05 03:51:08;;;;;;;18.20;13.83;;;;;;;39.78;35.17;101189.78;5077526;28;20471;-81
2023/05/05 03:53:34;;;;;;;25.63;11.07;;;;;;;39.58;35.45;101191.06;5095516;28;20417;-81
2023/05/05 03:56:00;;;;;;;27.13;11.80;;;;;;;39.67;35.26;101183.81;5077542;28;20867;-81
2023/05/05 03:58:26;;;;;;;17.90;11.27;;;;;;;39.59;35.58;101186.44;5077236;28;20834;-81
2023/05/05 04:00:52;;;;;;;21.23;9.70;;;;;;;39.61;35.55;101182.34;5094925;28;20990;-80
2023/05/05 04:03:18;;;;;;;19.60;11.23;;;;;;;39.69;35.27;101187.00;5097756;28;20511;-81
2023/05/05 04:05:44;;;;;;;17.63;9.97;;;;;;;39.59;36.03;101195.38;5088143;28;20523;-81
2023/05/05 04:08:10;;;;;;;27.23;11.00;;;;;;;39.51;35.91;101190.69;5077316;28;20420;-80
2023/05/05 04:10:36;;;;;;;16.10;8.83;;;;;;;39.78;35.77;101191.69;5077447;28;20455;-81
2023/05/05 04:13:03;;;;;;;19.27;10.33;;;;;;;39.78;35.55;101188.97;5077380;28;20416;-80
2023/05/05 04:15:29;;;;;;;14.87;9.47;;;;;;;39.87;35.44;101189.84;5095790;28;20424;-81
2023/05/05 04:17:55;;;;;;;19.50;9.40;;;;;;;39.85;35.32;101189.34;5076938;28;20419;-81
2023/05/05 04:20:21;;;;;;;21.73;9.13;;;;;;;39.69;35.25;101178.88;5076745;28;20436;-81
2023/05/05 04:22:47;;;;;;;17.37;8.73;;;;;;;39.64;35.67;101195.28;5076819;28;20413;-82
2023/05/05 04:25:13;;;;;;;15.13;8.20;;;;;;;39.59;35.69;101181.00;5077215;28;20566;-81
2023/05/05 04:27:39;;;;;;;15.97;8.20;;;;;;;39.58;35.74;101180.19;5076947;28;20500;-82
2023/05/05 04:30:06;;;;;;;19.10;8.93;;;;;;;39.72;35.61;101183.69;5094682;28;20431;-83
2023/05/05 04:32:32;;;;;;;19.50;9.00;;;;;;;39.69;35.20;101186.22;5097140;28;20853;-83
2023/05/05 04:34:58;;;;;;;17.53;8.93;;;;;;;39.64;35.82;101184.44;5097008;28;20936;-81
2023/05/05 04:37:24;;;;;;;22.60;7.83;;;;;;;39.76;34.95;101175.72;5096841;28;20927;-81
2023/05/05 04:39:51;;;;;;;16.40;9.17;;;;;;;39.79;35.36;101177.00;5096965;28;20459;-83
2023/05/05 04:42:17;;;;;;;19.83;9.27;;;;;;;39.78;34.92;101168.06;5088399;28;20413;-83
2023/05/05 04:44:43;;;;;;;23.27;9.30;;;;;;;39.76;35.05;101184.66;5076609;28;20466;-81
2023/05/05 04:47:09;;;;;;;17.90;8.47;;;;;;;39.84;35.11;101176.84;5076404;28;20417;-81
2023/05/05 04:49:35;;;;;;;18.40;8.77;;;;;;;39.90;34.90;101183.75;5076440;28;20417;-81
2023/05/05 04:52:01;;;;;;;19.20;9.37;;;;;;;39.91;35.26;101188.09;5076538;28;20445;-81
2023/05/05 04:54:27;;;;;;;15.87;10.20;;;;;;;39.71;35.57;101175.84;5076430;28;20421;-81
2023/05/05 04:56:54;;;;;;;19.90;9.23;;;;;;;39.87;35.34;101179.75;5076519;28;20428;-82
2023/05/05 04:59:20;;;;;;;19.23;9.10;;;;;;;39.96;35.14;101177.06;5095129;28;20471;-82
2023/05/05 05:01:46;;;;;;;18.70;10.90;;;;;;;39.84;35.00;101164.09;5096699;28;20941;-82
2023/05/05 05:04:12;;;;;;;23.03;10.30;;;;;;;39.97;34.97;101184.94;5096512;28;20943;-82
2023/05/05 05:06:38;;;;;;;17.20;10.00;;;;;;;40.08;34.58;101187.38;5096437;28;20521;-81
2023/05/05 05:09:04;;;;;;;18.67;8.57;;;;;;;40.03;34.19;101170.09;5097304;28;20503;-81
2023/05/05 05:11:30;;;;;;;21.90;10.90;;;;;;;40.21;34.38;101187.31;5096375;28;20412;-81
2023/05/05 05:13:56;;;;;;;34.27;11.63;;;;;;;40.30;34.12;101195.47;5096507;28;20535;-80
2023/05/05 05:16:24;;;;;;;17.27;10.63;;;;;;;40.23;34.02;101195.13;5079793;28;20443;-81
2023/05/05 05:18:50;;;;;;;15.93;11.10;;;;;;;40.08;34.13;101193.63;5075511;28;20456;-81
2023/05/05 05:21:16;;;;;;;21.63;12.80;;;;;;;40.05;34.28;101188.03;5075893;28;20467;-81
2023/05/05 05:23:42;;;;;;;20.43;11.17;;;;;;;40.11;34.11;101197.66;5075658;28;20421;-81
2023/05/05 05:26:08;;;;;;;20.30;11.50;;;;;;;40.01;34.11;101196.75;5087153;28;20435;-81
2023/05/05 05:28:34;;;;;;;17.80;8.40;;;;;;;40.08;34.06;101200.97;5096069;28;20430;-81
2023/05/05 05:31:00;;;;;;;16.73;10.33;;;;;;;40.06;34.18;101204.00;5095941;28;20446;-81
2023/05/05 05:33:26;;;;;;;36.70;12.73;;;;;;;40.04;34.03;101208.97;5095121;28;20420;-81
2023/05/05 05:35:52;;;;;;;26.03;12.63;;;;;;;40.11;33.86;101209.31;5086623;28;20417;-81
2023/05/05 05:38:18;;;;;;;27.70;11.67;;;;;;;40.09;33.98;101216.19;5075606;28;20458;-80
2023/05/05 05:40:44;;;;;;;17.73;10.97;;;;;;;40.12;33.84;101202.75;5075290;28;20441;-81
2023/05/05 05:43:10;;;;;;;22.70;11.13;;;;;;;40.16;33.73;101203.75;5075356;28;20417;-81
2023/05/05 05:45:36;;;;;;;25.37;11.90;;;;;;;40.20;33.98;101210.13;5078535;28;20417;-83
2023/05/05 05:48:02;;;;;;;25.40;12.50;;;;;;;40.21;34.07;101198.16;5055177;28;20433;-83
2023/05/05 05:50:28;;;;;;;25.23;11.60;;;;;;;40.26;33.83;101199.94;5071905;28;20449;-81
2023/05/05 05:52:54;;;;;;;39.80;19.77;;;;;;;40.31;34.15;101210.66;5054817;28;20818;-82
2023/05/05 05:55:20;;;;;;;37.97;22.30;;;;;;;40.21;34.11;101202.81;5058720;28;20422;-82
2023/05/05 05:57:46;;;;;;;38.13;22.60;;;;;;;40.34;33.75;101203.81;5095394;28;20427;-81
2023/05/05 06:00:14;;;;;;;37.80;19.27;;;;;;;40.41;33.90;101212.31;5094831;28;20479;-81
2023/05/05 06:02:41;;;;;;;33.07;17.97;;;;;;;40.37;33.91;101209.41;5086303;28;20460;-81
2023/05/05 06:05:07;;;;;;;31.10;18.00;;;;;;;40.41;33.69;101212.31;5073914;28;20452;-80
2023/05/05 06:07:33;;;;;;;40.73;18.80;;;;;;;40.40;33.53;101208.78;5079381;28;20424;-81
2023/05/05 06:09:59;;;;;;;32.33;16.10;;;;;;;40.38;33.34;101211.00;5081500;28;20452;-81
2023/05/05 06:12:25;;;;;;;35.80;18.50;;;;;;;40.37;33.93;101211.31;5075171;28;20420;-81
2023/05/05 06:14:51;;;;;;;26.53;16.27;;;;;;;40.42;33.79;101213.91;5074489;28;20447;-81
2023/05/05 06:17:17;;;;;;;26.20;17.50;;;;;;;40.39;33.29;101203.63;5085164;28;20429;-81
2023/05/05 06:19:43;;;;;;;35.70;18.00;;;;;;;40.46;33.57;101206.72;5076982;28;21010;-81
2023/05/05 06:22:09;;;;;;;30.90;16.37;;;;;;;40.33;33.83;101183.97;5074530;28;20427;-80
2023/05/05 06:24:35;;;;;;;38.97;16.97;;;;;;;40.32;34.00;101206.81;5073933;28;20851;-81
2023/05/05 06:27:04;;;;;;;29.17;17.17;;;;;;;40.35;34.12;101205.41;5075453;28;20797;-80
2023/05/05 06:29:30;;;;;;;41.17;17.43;;;;;;;40.38;34.02;101218.34;5074669;28;20429;-79
2023/05/05 06:31:56;;;;;;;33.53;17.67;;;;;;;40.27;33.97;101218.66;5073100;28;20495;-82
2023/05/05 06:34:22;;;;;;;32.73;18.70;;;;;;;40.40;33.84;101216.16;5066829;28;20428;-80
2023/05/05 06:36:48;;;;;;;28.50;18.50;;;;;;;40.34;34.11;101212.75;5086932;28;20811;-81
2023/05/05 06:39:14;;;;;;;45.00;24.07;;;;;;;40.28;34.03;101212.09;5074326;28;20467;-81
2023/05/05 06:41:40;;;;;;;43.77;25.80;;;;;;;40.32;34.58;101195.94;5074351;28;20838;-81
2023/05/05 06:44:06;;;;;;;41.77;25.37;;;;;;;40.43;34.02;101201.91;5074140;28;20420;-82
2023/05/05 06:46:32;;;;;;;39.03;24.47;;;;;;;40.37;33.76;101200.44;5085001;28;20776;-81
2023/05/05 06:48:58;;;;;;;51.27;29.63;;;;;;;40.05;34.58;101183.38;5084763;28;20975;-81
2023/05/05 06:51:25;;;;;;;51.97;32.57;;;;;;;40.08;34.43;101187.38;5074384;28;20444;-81
2023/05/05 06:53:51;;;;;;;46.23;26.90;;;;;;;40.27;34.37;101207.78;5074230;28;20443;-82
2023/05/05 06:56:19;;;;;;;52.43;31.67;;;;;;;40.35;34.37;101194.53;5082850;28;20980;-84
2023/05/05 06:58:45;;;;;;;42.80;26.23;;;;;;;40.39;34.33;101196.31;5087421;28;20464;-82
2023/05/05 07:01:11;;;;;;;43.00;23.57;;;;;;;40.43;33.91;101201.91;5092105;28;20475;-82
2023/05/05 07:03:37;;;;;;;41.30;20.40;;;;;;;40.39;34.19;101195.50;5073008;28;20428;-81
2023/05/05 07:06:13;;;;;;;38.00;20.13;;;;;;;40.49;34.51;101197.94;5080147;28;20428;-81
2023/05/05 07:08:39;;;;;;;43.50;23.87;;;;;;;40.53;34.15;101204.38;5097899;28;20424;-84
2023/05/05 07:11:05;;;;;;;34.97;24.27;;;;;;;40.50;34.26;101188.69;5074117;28;20421;-82
2023/05/05 07:13:31;;;;;;;38.37;18.90;;;;;;;40.55;34.53;101223.88;5074121;28;21073;-81
2023/05/05 07:15:58;;;;;;;39.20;20.13;;;;;;;40.67;34.38;101221.34;5075270;28;20490;-81
2023/05/05 07:18:24;;;;;;;39.03;22.13;;;;;;;40.62;34.23;101217.97;5073851;28;20805;-81
2023/05/05 07:20:50;;;;;;;29.40;19.13;;;;;;;40.67;34.29;101212.41;5074100;28;20468;-86
2023/05/05 07:23:17;;;;;;;32.77;18.27;;;;;;;40.52;34.56;101197.34;5090270;28;20416;-84
2023/05/05 07:25:43;;;;;;;27.70;16.73;;;;;;;40.56;34.76;101220.03;5076922;28;20420;-82
2023/05/05 07:28:10;;;;;;;33.77;19.23;;;;;;;40.51;35.16;101217.47;5088718;28;20444;-82
2023/05/05 07:30:36;;;;;;;24.33;17.23;;;;;;;40.68;34.40;101222.16;5073338;28;20427;-83
2023/05/05 07:33:02;;;;;;;36.00;20.27;;;;;;;40.79;34.28;101224.25;5073388;28;20503;-82
2023/05/05 07:35:29;;;;;;;32.20;18.00;;;;;;;40.78;34.71;101227.31;5073570;28;20868;-84
2023/05/05 07:37:54;;;;;;;34.17;19.57;;;;;;;40.92;34.06;101221.75;5074510;28;20448;-87
2023/05/05 07:40:21;;;;;;;37.07;21.57;;;;;;;40.79;34.72;101224.25;5073577;28;20846;-83
2023/05/05 07:42:47;;;;;;;38.50;23.87;;;;;;;40.89;34.63;101227.81;5073811;28;20517;-86
2023/05/05 07:45:14;;;;;;;43.63;25.10;;;;;;;40.96;34.67;101223.50;5073671;28;20504;-83
2023/05/05 07:47:40;;;;;;;36.80;21.57;;;;;;;40.90;34.52;101223.97;5092127;28;20417;-82
2023/05/05 07:50:07;;;;;;;39.80;19.90;;;;;;;40.99;34.44;101236.47;5073368;28;20428;-84
2023/05/05 07:52:33;;;;;;;28.13;17.83;;;;;;;40.96;34.64;101233.59;5038009;28;20826;-83
2023/05/05 07:54:59;;;;;;;40.47;20.90;;;;;;;41.11;34.47;101229.59;5076099;28;20425;-83
2023/05/05 07:57:25;;;;;;;31.03;18.53;;;;;;;41.12;34.41;101221.09;5077737;28;20420;-83
2023/05/05 07:59:51;;;;;;;30.73;20.63;;;;;;;41.22;34.47;101220.78;5073702;28;20495;-84
2023/05/05 08:02:17;;;;;;;35.47;19.37;;;;;;;41.31;34.30;101224.31;5076936;28;20436;-84
2023/05/05 08:04:43;;;;;;;32.60;16.27;;;;;;;41.32;33.77;101225.13;5076889;28;20944;-84
2023/05/05 08:07:09;;;;;;;29.00;17.37;;;;;;;41.20;34.45;101219.53;5078757;28;20807;-85
2023/05/05 08:09:37;;;;;;;22.30;15.37;;;;;;;41.30;34.23;101230.88;5076470;28;20474;-84
2023/05/05 08:12:04;;;;;;;33.47;14.93;;;;;;;41.34;34.81;101233.78;5078286;28;20459;-83
2023/05/05 08:14:32;;;;;;;23.23;14.67;;;;;;;41.27;33.94;101217.91;5078000;28;20944;-84
2023/05/05 08:16:59;;;;;;;22.00;14.43;;;;;;;41.43;34.11;101245.47;5088081;28;20469;-81
2023/05/05 08:19:25;;;;;;;34.80;15.27;;;;;;;41.48;34.44;101239.84;5061549;28;20609;-83
2023/05/05 08:21:54;;;;;;;53.77;16.90;;;;;;;41.45;34.33;101224.19;5078504;28;20956;-85
2023/05/05 08:24:21;;;;;;;28.20;15.30;;;;;;;41.56;34.26;101239.06;5091973;28;20433;-86
2023/05/05 08:26:48;;;;;;;28.93;14.83;;;;;;;41.54;34.15;101240.50;5078078;28;20416;-84
2023/05/05 08:29:14;;;;;;;24.63;14.87;;;;;;;41.37;34.76;101224.16;5076406;28;20912;-83
2023/05/05 08:31:40;;;;;;;25.57;14.23;;;;;;;41.45;33.88;101237.78;5077011;28;20429;-84
2023/05/05 08:34:06;;;;;;;29.00;16.50;;;;;;;41.54;33.98;101237.78;5076094;28;20446;-84
2023/05/05 08:36:32;;;;;;;24.50;14.23;;;;;;;41.56;33.92;101238.28;5078355;28;20436;-84
2023/05/05 08:38:59;;;;;;;22.67;12.13;;;;;;;41.54;34.42;101235.03;5076211;28;20458;-84
2023/05/05 08:41:25;;;;;;;21.00;11.83;;;;;;;41.62;34.24;101247.88;5076831;28;20421;-84
2023/05/05 08:43:51;;;;;;;34.30;14.23;;;;;;;41.63;34.13;101248.66;5077514;28;20816;-84
2023/05/05 08:46:17;;;;;;;21.87;12.60;;;;;;;41.71;34.07;101237.75;5102281;28;20825;-86
2023/05/05 08:48:44;;;;;;;28.87;13.90;;;;;;;41.81;34.12;101244.81;5111478;28;21003;-82
2023/05/05 08:51:20;;;;;;;19.50;10.80;;;;;;;41.66;33.68;101235.19;5050078;28;20503;-84
2023/05/05 08:54:04;;;;;;;19.30;13.00;;;;;;;41.79;34.16;101245.13;5087694;28;20494;-84
2023/05/05 08:56:33;;;;;;;21.87;10.87;;;;;;;41.78;34.28;101248.97;5079708;28;20999;-84
2023/05/05 08:59:02;;;;;;;21.70;13.23;;;;;;;41.74;34.47;101237.16;5073240;28;21030;-83
2023/05/05 09:01:32;;;;;;;23.63;11.63;;;;;;;41.72;34.40;101244.00;5079210;28;20462;-84
2023/05/05 09:03:59;;;;;;;26.67;12.23;;;;;;;41.74;34.41;101253.50;5059801;28;21000;-84
2023/05/05 09:06:26;;;;;;;18.30;9.80;;;;;;;41.79;34.32;101249.78;5075300;28;20801;-83
2023/05/05 09:08:53;;;;;;;20.70;9.63;;;;;;;41.67;34.48;101241.44;5053689;28;20505;-83
2023/05/05 09:11:20;;;;;;;22.13;8.20;;;;;;;41.86;34.33;101248.13;5058074;28;20428;-83
2023/05/05 09:13:46;;;;;;;20.10;9.73;;;;;;;41.73;34.01;101243.66;5055632;28;20436;-83
2023/05/05 09:16:12;;;;;;;16.87;8.57;;;;;;;41.58;34.15;101220.47;5076029;28;20444;-83
2023/05/05 09:18:41;;;;;;;18.67;8.53;;;;;;;41.83;34.15;101237.13;5046073;28;20469;-83
2023/05/05 09:21:21;;;;;;;16.63;8.47;;;;;;;41.67;34.58;101234.06;5053996;28;20425;-83
2023/05/05 09:24:08;;;;;;;18.23;9.20;;;;;;;41.65;34.18;101227.34;5055392;28;20876;-83
2023/05/05 09:26:36;;;;;;;17.33;6.90;;;;;;;41.66;33.98;101232.47;5042170;28;20477;-84
2023/05/05 09:29:06;;;;;;;15.83;7.43;;;;;;;41.55;34.49;101239.38;5062319;28;20414;-84
2023/05/05 09:31:34;;;;;;;28.70;8.13;;;;;;;41.78;33.97;101227.19;5053357;28;20500;-83
2023/05/05 09:34:00;;;;;;;15.50;6.60;;;;;;;41.76;33.88;101229.44;5037856;28;20444;-85
2023/05/05 09:36:46;;;;;;;18.47;6.27;;;;;;;41.76;33.97;101229.44;5053971;28;20448;-83
2023/05/05 09:39:19;;;;;;;17.20;8.20;;;;;;;41.94;33.77;101223.94;5052673;28;20461;-83
2023/05/05 09:41:45;;;;;;;21.90;7.67;;;;;;;41.91;34.42;101224.56;5051116;28;20462;-83
2023/05/05 09:44:15;;;;;;;22.33;6.97;;;;;;;42.02;33.97;101217.66;5036977;28;20463;-83
2023/05/05 09:46:53;;;;;;;23.13;8.80;;;;;;;41.95;33.59;101217.38;5053579;28;20447;-83
2023/05/05 09:49:25;;;;;;;19.40;8.00;;;;;;;41.91;33.95;101214.47;5067284;28;20464;-84
2023/05/05 09:51:52;;;;;;;11.63;5.60;;;;;;;41.94;33.61;101213.84;5053398;28;20459;-84
2023/05/05 09:54:29;;;;;;;17.03;7.50;;;;;;;41.84;34.28;101208.72;5065587;28;20956;-83
2023/05/05 09:56:59;;;;;;;20.20;7.77;;;;;;;42.01;34.13;101207.88;5053770;28;20441;-83
2023/05/05 09:59:26;;;;;;;16.37;7.10;;;;;;;41.92;33.98;101209.81;5060948;28;20510;-83
2023/05/05 10:02:08;;;;;;;25.40;7.70;;;;;;;41.91;33.87;101200.84;5074728;28;20440;-83
2023/05/05 10:04:34;;;;;;;15.87;7.10;;;;;;;41.73;34.40;101202.81;5089284;28;20548;-82
2023/05/05 10:07:00;;;;;;;23.90;9.40;;;;;;;41.84;33.99;101214.19;5086864;28;20431;-82
2023/05/05 10:09:27;;;;;;;17.70;7.30;;;;;;;41.96;34.25;101214.31;5089701;28;20915;-82
2023/05/05 10:11:54;;;;;;;19.73;8.43;;;;;;;41.77;34.05;101216.63;5087623;28;20515;-85
2023/05/05 10:14:23;;;;;;;18.50;7.70;;;;;;;41.93;34.15;101208.69;5089200;28;20481;-82
2023/05/05 10:16:51;;;;;;;16.20;10.00;;;;;;;42.00;33.90;101217.97;5087042;28;20432;-83
2023/05/05 10:19:21;;;;;;;18.37;8.13;;;;;;;42.07;34.24;101223.72;5090094;28;20463;-83
2023/05/05 10:21:52;;;;;;;16.57;7.20;;;;;;;41.91;34.09;101222.66;5073147;28;20467;-82
2023/05/05 10:24:42;;;;;;;17.17;8.20;;;;;;;42.01;34.13;101219.59;5078250;28;20542;-82
2023/05/05 10:27:21;;;;;;;16.27;8.00;;;;;;;42.14;34.28;101221.28;5077118;28;20543;-83
2023/05/05 10:29:51;;;;;;;10.63;4.73;;;;;;;41.97;34.23;101226.00;5081141;28;20430;-83
2023/05/05 10:32:27;;;;;;;21.03;8.43;;;;;;;41.91;34.63;101205.50;5074747;28;20420;-83
2023/05/05 10:35:00;;;;;;;17.40;7.00;;;;;;;42.05;34.50;101228.72;5074390;28;20486;-83
2023/05/05 10:37:27;;;;;;;12.53;5.80;;;;;;;42.13;34.23;101211.50;5074677;28;20852;-84
2023/05/05 10:39:57;;;;;;;14.70;7.23;;;;;;;42.12;34.36;101204.47;5075404;28;20472;-84
2023/05/05 10:42:24;;;;;;;11.80;6.57;;;;;;;42.26;34.26;101204.25;5076059;28;20429;-83
2023/05/05 10:44:50;;;;;;;13.57;6.10;;;;;;;41.98;34.52;101192.16;5076163;28;20980;-84
2023/05/05 10:47:17;;;;;;;16.10;5.80;;;;;;;42.05;34.15;101192.44;5076316;28;20423;-83
2023/05/05 10:49:46;;;;;;;11.73;5.33;;;;;;;42.17;34.05;101189.06;5079597;28;20424;-83
2023/05/05 10:52:26;;;;;;;13.80;5.17;;;;;;;42.19;34.06;101187.63;5092567;28;20440;-84
2023/05/05 10:55:08;;;;;;;12.30;5.50;;;;;;;42.23;34.64;101193.22;5089335;28;20425;-83
2023/05/05 10:57:40;;;;;;;11.97;6.33;;;;;;;42.16;34.22;101185.53;5090805;28;20433;-86
2023/05/05 11:00:07;;;;;;;13.03;7.07;;;;;;;42.05;34.60;101187.00;5099233;28;20475;-86
2023/05/05 11:02:34;;;;;;;11.50;6.07;;;;;;;42.15;34.44;101194.81;5077821;28;20428;-86
2023/05/05 11:05:19;;;;;;;15.70;6.60;;;;;;;42.16;34.42;101195.63;5074346;28;20459;-84
2023/05/05 11:07:50;;;;;;;19.07;7.03;;;;;;;42.22;34.13;101194.34;5092342;28;20785;-83
2023/05/05 11:10:22;;;;;;;12.27;6.20;;;;;;;42.25;34.33;101197.22;5076699;28;20420;-83
2023/05/05 11:13:01;;;;;;;18.03;6.37;;;;;;;42.24;34.29;101195.63;5092361;28;20453;-84
2023/05/05 11:15:27;;;;;;;23.33;7.33;;;;;;;42.39;33.98;101189.59;5074087;28;20424;-83
2023/05/05 11:17:55;;;;;;;18.60;5.80;;;;;;;42.27;34.13;101177.81;5075222;28;20994;-87
2023/05/05 11:20:39;;;;;;;14.97;5.80;;;;;;;42.28;33.91;101190.31;5078085;28;20526;-83